sensor_id;sensor_type;location;lat;lon;timestamp;pressure;altitude;pressure_sealevel;temperature;humidity
21111;BME280;10713;51.912;4.494;2022-08-19T00:01:31;101323.91;;;20.97;100.00
21111;BME280;10713;51.912;4.494;2022-08-19T00:04:02;101319.19;;;21.01;100.00
21111;BME280;10713;51.912;4.494;2022-08-19T00:06:29;101313.16;;;20.97;100.00
21111;BME280;10713;51.912;4.494;2022-08-19T00:08:55;101304.63;;;20.92;100.00
21111;BME280;10713;51.912;4.494;2022-08-19T00:11:21;101318.38;;;20.87;100.00
21111;BME280;10713;51.912;4.494;2022-08-19T00:13:47;101318.28;;;20.89;100.00
21111;BME280;10713;51.912;4.494;2022-08-19T00:16:14;101322.66;;;20.90;100.00
21111;BME280;10713;51.912;4.494;2022-08-19T00:18:39;101320.09;;;20.88;100.00
21111;BME280;10713;51.912;4.494;2022-08-19T00:21:05;101326.53;;;20.86;100.00
21111;BME280;10713;51.912;4.494;2022-08-19T00:23:32;101334.72;;;20.84;100.00
21111;BME280;10713;51.912;4.494;2022-08-19T00:26:00;101331.41;;;20.81;100.00
21111;BME280;10713;51.912;4.494;2022-08-19T00:28:25;101335.28;;;20.77;100.00
21111;BME280;10713;51.912;4.494;2022-08-19T00:30:50;101343.31;;;20.77;100.00
21111;BME280;10713;51.912;4.494;2022-08-19T00:33:18;101340.88;;;20.74;100.00
21111;BME280;10713;51.912;4.494;2022-08-19T00:35:43;101344.53;;;20.73;100.00
21111;BME280;10713;51.912;4.494;2022-08-19T00:38:09;101338.41;;;20.70;100.00
21111;BME280;10713;51.912;4.494;2022-08-19T00:40:34;101334.75;;;20.72;100.00
21111;BME280;10713;51.912;4.494;2022-08-19T00:42:59;101332.97;;;20.72;100.00
21111;BME280;10713;51.912;4.494;2022-08-19T00:45:28;101327.81;;;20.69;100.00
21111;BME280;10713;51.912;4.494;2022-08-19T00:47:57;101321.41;;;20.59;100.00
21111;BME280;10713;51.912;4.494;2022-08-19T00:50:23;101342.53;;;20.63;100.00
21111;BME280;10713;51.912;4.494;2022-08-19T00:52:50;101342.19;;;20.68;100.00
21111;BME280;10713;51.912;4.494;2022-08-19T00:55:21;101343.25;;;20.65;100.00
21111;BME280;10713;51.912;4.494;2022-08-19T00:57:54;101347.91;;;20.63;100.00
21111;BME280;10713;51.912;4.494;2022-08-19T01:00:22;101349.00;;;20.61;100.00
21111;BME280;10713;51.912;4.494;2022-08-19T01:02:48;101346.63;;;20.56;100.00
21111;BME280;10713;51.912;4.494;2022-08-19T01:05:21;101348.22;;;20.59;100.00
21111;BME280;10713;51.912;4.494;2022-08-19T01:07:48;101351.06;;;20.81;100.00
21111;BME280;10713;51.912;4.494;2022-08-19T01:10:19;101348.22;;;20.83;100.00
21111;BME280;10713;51.912;4.494;2022-08-19T01:12:46;101350.91;;;20.83;100.00
21111;BME280;10713;51.912;4.494;2022-08-19T01:15:14;101354.59;;;20.82;100.00
21111;BME280;10713;51.912;4.494;2022-08-19T01:17:41;101358.13;;;20.82;100.00
21111;BME280;10713;51.912;4.494;2022-08-19T01:20:20;101353.38;;;20.86;100.00
21111;BME280;10713;51.912;4.494;2022-08-19T01:22:48;101349.22;;;20.82;100.00
21111;BME280;10713;51.912;4.494;2022-08-19T01:25:16;101340.72;;;20.88;100.00
21111;BME280;10713;51.912;4.494;2022-08-19T01:27:44;101343.53;;;20.86;100.00
21111;BME280;10713;51.912;4.494;2022-08-19T01:30:22;101341.78;;;20.85;100.00
21111;BME280;10713;51.912;4.494;2022-08-19T01:32:49;101344.84;;;20.81;100.00
21111;BME280;10713;51.912;4.494;2022-08-19T01:35:15;101356.50;;;20.80;100.00
21111;BME280;10713;51.912;4.494;2022-08-19T01:37:53;101359.94;;;20.82;100.00
21111;BME280;10713;51.912;4.494;2022-08-19T01:40:20;101360.19;;;20.79;100.00
21111;BME280;10713;51.912;4.494;2022-08-19T01:42:50;101352.97;;;20.79;100.00
21111;BME280;10713;51.912;4.494;2022-08-19T01:45:17;101359.56;;;20.75;100.00
21111;BME280;10713;51.912;4.494;2022-08-19T01:47:43;101351.59;;;20.74;100.00
21111;BME280;10713;51.912;4.494;2022-08-19T01:50:09;101353.53;;;20.72;100.00
21111;BME280;10713;51.912;4.494;2022-08-19T01:52:37;101344.63;;;20.71;100.00
21111;BME280;10713;51.912;4.494;2022-08-19T01:55:04;101342.81;;;20.72;100.00
21111;BME280;10713;51.912;4.494;2022-08-19T01:57:30;101345.72;;;20.68;100.00
21111;BME280;10713;51.912;4.494;2022-08-19T01:59:56;101343.31;;;20.53;100.00
21111;BME280;10713;51.912;4.494;2022-08-19T02:02:22;101351.88;;;20.45;100.00
21111;BME280;10713;51.912;4.494;2022-08-19T02:04:47;101347.25;;;20.60;100.00
21111;BME280;10713;51.912;4.494;2022-08-19T02:07:13;101343.09;;;20.56;100.00
21111;BME280;10713;51.912;4.494;2022-08-19T02:09:38;101353.63;;;20.46;100.00
21111;BME280;10713;51.912;4.494;2022-08-19T02:12:04;101350.94;;;20.46;100.00
21111;BME280;10713;51.912;4.494;2022-08-19T02:14:30;101350.47;;;20.65;100.00
21111;BME280;10713;51.912;4.494;2022-08-19T02:16:55;101350.50;;;20.52;100.00
21111;BME280;10713;51.912;4.494;2022-08-19T02:19:21;101357.47;;;20.42;100.00
21111;BME280;10713;51.912;4.494;2022-08-19T02:21:47;101359.19;;;20.43;100.00
21111;BME280;10713;51.912;4.494;2022-08-19T02:24:12;101357.38;;;20.43;100.00
21111;BME280;10713;51.912;4.494;2022-08-19T02:26:37;101349.97;;;20.47;100.00
21111;BME280;10713;51.912;4.494;2022-08-19T02:29:03;101346.78;;;20.66;100.00
21111;BME280;10713;51.912;4.494;2022-08-19T02:31:29;101361.66;;;20.59;100.00
21111;BME280;10713;51.912;4.494;2022-08-19T02:33:56;101355.66;;;20.55;100.00
21111;BME280;10713;51.912;4.494;2022-08-19T02:36:21;101357.50;;;20.55;100.00
21111;BME280;10713;51.912;4.494;2022-08-19T02:38:47;101346.00;;;20.53;100.00
21111;BME280;10713;51.912;4.494;2022-08-19T02:41:18;101348.56;;;20.54;100.00
21111;BME280;10713;51.912;4.494;2022-08-19T02:43:44;101337.97;;;20.53;100.00
21111;BME280;10713;51.912;4.494;2022-08-19T02:46:15;101342.25;;;20.55;100.00
21111;BME280;10713;51.912;4.494;2022-08-19T02:48:46;101333.75;;;20.48;100.00
21111;BME280;10713;51.912;4.494;2022-08-19T02:51:19;101333.63;;;20.50;100.00
21111;BME280;10713;51.912;4.494;2022-08-19T02:53:44;101331.66;;;20.41;100.00
21111;BME280;10713;51.912;4.494;2022-08-19T02:56:10;101326.06;;;20.44;100.00
21111;BME280;10713;51.912;4.494;2022-08-19T02:58:35;101324.22;;;20.44;100.00
21111;BME280;10713;51.912;4.494;2022-08-19T03:01:00;101325.53;;;20.39;100.00
21111;BME280;10713;51.912;4.494;2022-08-19T03:03:26;101324.31;;;20.43;100.00
21111;BME280;10713;51.912;4.494;2022-08-19T03:05:51;101328.59;;;20.45;100.00
21111;BME280;10713;51.912;4.494;2022-08-19T03:08:17;101332.50;;;20.29;100.00
21111;BME280;10713;51.912;4.494;2022-08-19T03:10:45;101317.53;;;20.26;100.00
21111;BME280;10713;51.912;4.494;2022-08-19T03:13:15;101321.47;;;20.33;100.00
21111;BME280;10713;51.912;4.494;2022-08-19T03:15:43;101322.66;;;20.66;100.00
21111;BME280;10713;51.912;4.494;2022-08-19T03:18:09;101311.88;;;20.79;100.00
21111;BME280;10713;51.912;4.494;2022-08-19T03:20:40;101320.84;;;20.66;100.00
21111;BME280;10713;51.912;4.494;2022-08-19T03:23:06;101317.66;;;20.61;100.00
21111;BME280;10713;51.912;4.494;2022-08-19T03:25:37;101306.00;;;20.74;100.00
21111;BME280;10713;51.912;4.494;2022-08-19T03:28:03;101318.09;;;20.55;100.00
21111;BME280;10713;51.912;4.494;2022-08-19T03:30:28;101301.06;;;21.15;100.00
21111;BME280;10713;51.912;4.494;2022-08-19T03:32:54;101308.03;;;20.94;100.00
21111;BME280;10713;51.912;4.494;2022-08-19T03:35:19;101304.16;;;20.98;100.00
21111;BME280;10713;51.912;4.494;2022-08-19T03:37:45;101308.78;;;20.96;100.00
21111;BME280;10713;51.912;4.494;2022-08-19T03:40:10;101306.28;;;20.82;100.00
21111;BME280;10713;51.912;4.494;2022-08-19T03:42:36;101310.94;;;20.91;100.00
21111;BME280;10713;51.912;4.494;2022-08-19T03:45:02;101309.13;;;20.91;100.00
21111;BME280;10713;51.912;4.494;2022-08-19T03:47:27;101319.31;;;20.75;100.00
21111;BME280;10713;51.912;4.494;2022-08-19T03:49:53;101313.31;;;20.72;100.00
21111;BME280;10713;51.912;4.494;2022-08-19T03:52:18;101310.00;;;20.68;100.00
21111;BME280;10713;51.912;4.494;2022-08-19T03:54:44;101311.22;;;20.64;100.00
21111;BME280;10713;51.912;4.494;2022-08-19T03:57:10;101322.16;;;20.61;100.00
21111;BME280;10713;51.912;4.494;2022-08-19T03:59:37;101319.97;;;20.66;100.00
21111;BME280;10713;51.912;4.494;2022-08-19T04:02:07;101336.06;;;20.66;100.00
21111;BME280;10713;51.912;4.494;2022-08-19T04:04:35;101333.97;;;20.58;100.00
21111;BME280;10713;51.912;4.494;2022-08-19T04:07:01;101346.41;;;20.59;100.00
21111;BME280;10713;51.912;4.494;2022-08-19T04:09:26;101348.13;;;20.60;100.00
21111;BME280;10713;51.912;4.494;2022-08-19T04:11:54;101346.63;;;20.56;100.00
21111;BME280;10713;51.912;4.494;2022-08-19T04:14:23;101342.66;;;20.62;100.00
21111;BME280;10713;51.912;4.494;2022-08-19T04:16:50;101332.53;;;20.65;100.00
21111;BME280;10713;51.912;4.494;2022-08-19T04:19:17;101340.59;;;20.65;100.00
21111;BME280;10713;51.912;4.494;2022-08-19T04:21:45;101345.56;;;20.59;100.00
21111;BME280;10713;51.912;4.494;2022-08-19T04:24:11;101343.84;;;20.58;100.00
21111;BME280;10713;51.912;4.494;2022-08-19T04:26:37;101337.50;;;20.59;100.00
21111;BME280;10713;51.912;4.494;2022-08-19T04:29:07;101341.25;;;20.69;100.00
21111;BME280;10713;51.912;4.494;2022-08-19T04:31:33;101333.56;;;20.76;100.00
21111;BME280;10713;51.912;4.494;2022-08-19T04:34:04;101332.72;;;20.75;100.00
21111;BME280;10713;51.912;4.494;2022-08-19T04:36:32;101328.66;;;20.93;100.00
21111;BME280;10713;51.912;4.494;2022-08-19T04:39:00;101330.38;;;20.95;100.00
21111;BME280;10713;51.912;4.494;2022-08-19T04:41:26;101332.94;;;20.96;100.00
21111;BME280;10713;51.912;4.494;2022-08-19T04:44:11;101355.50;;;19.94;100.00
21111;BME280;10713;51.912;4.494;2022-08-19T04:46:37;101338.59;;;20.80;100.00
21111;BME280;10713;51.912;4.494;2022-08-19T04:49:03;101328.88;;;20.90;100.00
21111;BME280;10713;51.912;4.494;2022-08-19T04:51:30;101344.00;;;20.67;100.00
21111;BME280;10713;51.912;4.494;2022-08-19T04:53:56;101345.94;;;20.65;100.00
21111;BME280;10713;51.912;4.494;2022-08-19T04:56:22;101345.72;;;20.68;100.00
21111;BME280;10713;51.912;4.494;2022-08-19T04:58:48;101339.03;;;20.74;100.00
21111;BME280;10713;51.912;4.494;2022-08-19T05:01:22;101355.44;;;20.82;100.00
21111;BME280;10713;51.912;4.494;2022-08-19T05:03:48;101341.25;;;20.80;100.00
21111;BME280;10713;51.912;4.494;2022-08-19T05:06:15;101346.53;;;20.82;100.00
21111;BME280;10713;51.912;4.494;2022-08-19T05:08:42;101349.56;;;21.01;100.00
21111;BME280;10713;51.912;4.494;2022-08-19T05:11:14;101347.56;;;21.27;100.00
21111;BME280;10713;51.912;4.494;2022-08-19T05:13:41;101345.94;;;21.38;100.00
21111;BME280;10713;51.912;4.494;2022-08-19T05:16:07;101362.75;;;20.43;100.00
21111;BME280;10713;51.912;4.494;2022-08-19T05:18:32;101367.56;;;20.38;100.00
21111;BME280;10713;51.912;4.494;2022-08-19T05:21:19;101357.94;;;20.73;100.00
21111;BME280;10713;51.912;4.494;2022-08-19T05:24:05;101365.53;;;20.55;100.00
21111;BME280;10713;51.912;4.494;2022-08-19T05:26:37;101363.88;;;20.65;100.00
21111;BME280;10713;51.912;4.494;2022-08-19T05:29:04;101348.75;;;21.12;100.00
21111;BME280;10713;51.912;4.494;2022-08-19T05:31:31;101352.47;;;20.98;100.00
21111;BME280;10713;51.912;4.494;2022-08-19T05:33:56;101347.81;;;21.00;100.00
21111;BME280;10713;51.912;4.494;2022-08-19T05:36:27;101338.06;;;20.99;100.00
21111;BME280;10713;51.912;4.494;2022-08-19T05:38:53;101334.44;;;21.11;100.00
21111;BME280;10713;51.912;4.494;2022-08-19T05:41:19;101340.22;;;21.18;100.00
21111;BME280;10713;51.912;4.494;2022-08-19T05:43:45;101341.13;;;21.30;100.00
21111;BME280;10713;51.912;4.494;2022-08-19T05:46:17;101339.47;;;21.16;100.00
21111;BME280;10713;51.912;4.494;2022-08-19T05:48:43;101351.91;;;21.17;100.00
21111;BME280;10713;51.912;4.494;2022-08-19T05:51:08;101352.81;;;21.18;100.00
21111;BME280;10713;51.912;4.494;2022-08-19T05:53:34;101349.19;;;21.30;100.00
21111;BME280;10713;51.912;4.494;2022-08-19T05:56:09;101352.28;;;21.36;100.00
21111;BME280;10713;51.912;4.494;2022-08-19T05:58:35;101343.25;;;21.49;100.00
21111;BME280;10713;51.912;4.494;2022-08-19T06:01:00;101338.41;;;21.65;100.00
21111;BME280;10713;51.912;4.494;2022-08-19T06:03:30;101346.63;;;21.64;100.00
21111;BME280;10713;51.912;4.494;2022-08-19T06:05:57;101346.75;;;21.96;100.00
21111;BME280;10713;51.912;4.494;2022-08-19T06:08:24;101333.19;;;22.31;100.00
21111;BME280;10713;51.912;4.494;2022-08-19T06:10:49;101337.06;;;23.25;100.00
21111;BME280;10713;51.912;4.494;2022-08-19T06:13:15;101321.00;;;24.17;100.00
21111;BME280;10713;51.912;4.494;2022-08-19T06:15:40;101323.00;;;24.75;100.00
21111;BME280;10713;51.912;4.494;2022-08-19T06:18:08;101321.91;;;25.83;100.00
21111;BME280;10713;51.912;4.494;2022-08-19T06:20:34;101314.09;;;26.63;100.00
21111;BME280;10713;51.912;4.494;2022-08-19T06:22:59;101316.59;;;26.74;100.00
21111;BME280;10713;51.912;4.494;2022-08-19T06:25:24;101307.22;;;26.50;100.00
21111;BME280;10713;51.912;4.494;2022-08-19T06:27:50;101312.94;;;26.20;100.00
21111;BME280;10713;51.912;4.494;2022-08-19T06:30:15;101312.25;;;25.71;100.00
21111;BME280;10713;51.912;4.494;2022-08-19T06:32:41;101305.97;;;25.23;100.00
21111;BME280;10713;51.912;4.494;2022-08-19T06:35:07;101311.50;;;24.92;100.00
21111;BME280;10713;51.912;4.494;2022-08-19T06:37:32;101311.19;;;24.66;100.00
21111;BME280;10713;51.912;4.494;2022-08-19T06:39:58;101317.91;;;24.32;100.00
21111;BME280;10713;51.912;4.494;2022-08-19T06:42:23;101312.72;;;23.99;100.00
21111;BME280;10713;51.912;4.494;2022-08-19T06:44:49;101316.22;;;23.69;100.00
21111;BME280;10713;51.912;4.494;2022-08-19T06:47:18;101336.28;;;23.34;100.00
21111;BME280;10713;51.912;4.494;2022-08-19T06:49:44;101325.50;;;23.13;100.00
21111;BME280;10713;51.912;4.494;2022-08-19T06:52:10;101325.09;;;22.97;100.00
21111;BME280;10713;51.912;4.494;2022-08-19T06:54:41;101329.53;;;22.87;100.00
21111;BME280;10713;51.912;4.494;2022-08-19T06:57:07;101334.16;;;22.85;100.00
21111;BME280;10713;51.912;4.494;2022-08-19T06:59:38;101331.47;;;22.96;100.00
21111;BME280;10713;51.912;4.494;2022-08-19T07:02:04;101333.06;;;22.99;100.00
21111;BME280;10713;51.912;4.494;2022-08-19T07:04:32;101333.78;;;23.01;100.00
21111;BME280;10713;51.912;4.494;2022-08-19T07:07:04;101328.25;;;23.02;100.00
21111;BME280;10713;51.912;4.494;2022-08-19T07:09:33;101328.00;;;23.05;100.00
21111;BME280;10713;51.912;4.494;2022-08-19T07:11:58;101341.78;;;23.12;100.00
21111;BME280;10713;51.912;4.494;2022-08-19T07:14:26;101344.84;;;23.19;100.00
21111;BME280;10713;51.912;4.494;2022-08-19T07:16:54;101352.69;;;23.10;100.00
21111;BME280;10713;51.912;4.494;2022-08-19T07:19:21;101349.94;;;23.01;100.00
21111;BME280;10713;51.912;4.494;2022-08-19T07:21:48;101346.84;;;23.05;100.00
21111;BME280;10713;51.912;4.494;2022-08-19T07:24:14;101353.38;;;23.45;100.00
21111;BME280;10713;51.912;4.494;2022-08-19T07:26:42;101342.84;;;24.14;100.00
21111;BME280;10713;51.912;4.494;2022-08-19T07:29:08;101344.47;;;24.77;100.00
21111;BME280;10713;51.912;4.494;2022-08-19T07:31:33;101342.50;;;24.98;100.00
21111;BME280;10713;51.912;4.494;2022-08-19T07:34:09;101330.69;;;24.80;100.00
21111;BME280;10713;51.912;4.494;2022-08-19T07:36:38;101341.88;;;24.56;100.00
21111;BME280;10713;51.912;4.494;2022-08-19T07:39:09;101345.66;;;24.43;100.00
21111;BME280;10713;51.912;4.494;2022-08-19T07:41:35;101334.94;;;24.22;100.00
21111;BME280;10713;51.912;4.494;2022-08-19T07:44:03;101339.63;;;23.90;100.00
21111;BME280;10713;51.912;4.494;2022-08-19T07:46:32;101342.16;;;23.81;100.00
21111;BME280;10713;51.912;4.494;2022-08-19T07:48:58;101345.78;;;23.71;100.00
21111;BME280;10713;51.912;4.494;2022-08-19T07:51:26;101348.78;;;23.56;100.00
21111;BME280;10713;51.912;4.494;2022-08-19T07:53:51;101349.00;;;23.44;100.00
21111;BME280;10713;51.912;4.494;2022-08-19T07:56:18;101357.31;;;23.41;100.00
21111;BME280;10713;51.912;4.494;2022-08-19T07:58:46;101368.03;;;23.31;100.00
21111;BME280;10713;51.912;4.494;2022-08-19T08:01:18;101372.56;;;23.30;100.00
21111;BME280;10713;51.912;4.494;2022-08-19T08:03:44;101372.31;;;23.33;100.00
21111;BME280;10713;51.912;4.494;2022-08-19T08:06:28;101371.34;;;23.23;100.00
21111;BME280;10713;51.912;4.494;2022-08-19T08:09:13;101375.94;;;23.44;100.00
21111;BME280;10713;51.912;4.494;2022-08-19T08:11:51;101367.69;;;23.45;100.00
21111;BME280;10713;51.912;4.494;2022-08-19T08:14:22;101368.47;;;24.30;100.00
21111;BME280;10713;51.912;4.494;2022-08-19T08:16:49;101361.72;;;24.45;100.00
21111;BME280;10713;51.912;4.494;2022-08-19T08:19:17;101362.88;;;24.52;100.00
21111;BME280;10713;51.912;4.494;2022-08-19T08:21:43;101362.81;;;24.33;100.00
21111;BME280;10713;51.912;4.494;2022-08-19T08:24:09;101366.47;;;24.32;100.00
21111;BME280;10713;51.912;4.494;2022-08-19T08:26:35;101376.09;;;24.55;100.00
21111;BME280;10713;51.912;4.494;2022-08-19T08:29:01;101376.44;;;24.81;100.00
21111;BME280;10713;51.912;4.494;2022-08-19T08:31:26;101376.59;;;24.99;100.00
21111;BME280;10713;51.912;4.494;2022-08-19T08:33:51;101375.63;;;25.29;100.00
21111;BME280;10713;51.912;4.494;2022-08-19T08:36:17;101375.75;;;25.57;100.00
21111;BME280;10713;51.912;4.494;2022-08-19T08:38:43;101370.00;;;25.89;100.00
21111;BME280;10713;51.912;4.494;2022-08-19T08:43:57;101372.06;;;26.42;100.00
21111;BME280;10713;51.912;4.494;2022-08-19T08:46:41;101358.63;;;27.14;100.00
21111;BME280;10713;51.912;4.494;2022-08-19T08:49:28;101357.00;;;28.17;100.00
21111;BME280;10713;51.912;4.494;2022-08-19T08:52:07;101357.13;;;28.50;100.00
21111;BME280;10713;51.912;4.494;2022-08-19T08:54:55;101345.91;;;29.36;100.00
21111;BME280;10713;51.912;4.494;2022-08-19T08:57:30;101351.16;;;29.38;100.00
21111;BME280;10713;51.912;4.494;2022-08-19T09:00:02;101356.75;;;29.04;100.00
21111;BME280;10713;51.912;4.494;2022-08-19T09:02:30;101358.97;;;29.33;100.00
21111;BME280;10713;51.912;4.494;2022-08-19T09:04:55;101355.72;;;29.62;100.00
21111;BME280;10713;51.912;4.494;2022-08-19T09:07:45;101350.47;;;29.36;100.00
21111;BME280;10713;51.912;4.494;2022-08-19T09:10:34;101344.81;;;28.72;100.00
21111;BME280;10713;51.912;4.494;2022-08-19T09:15:41;101350.94;;;27.71;100.00
21111;BME280;10713;51.912;4.494;2022-08-19T09:18:10;101352.81;;;26.73;100.00
21111;BME280;10713;51.912;4.494;2022-08-19T09:20:36;101363.97;;;26.05;100.00
21111;BME280;10713;51.912;4.494;2022-08-19T09:23:01;101362.31;;;25.75;100.00
21111;BME280;10713;51.912;4.494;2022-08-19T09:25:27;101374.19;;;25.54;100.00
21111;BME280;10713;51.912;4.494;2022-08-19T09:27:54;101364.66;;;25.50;100.00
21111;BME280;10713;51.912;4.494;2022-08-19T09:30:27;101380.34;;;25.27;100.00
21111;BME280;10713;51.912;4.494;2022-08-19T09:32:53;101372.66;;;25.23;100.00
21111;BME280;10713;51.912;4.494;2022-08-19T09:35:21;101373.50;;;25.23;100.00
21111;BME280;10713;51.912;4.494;2022-08-19T09:37:47;101370.13;;;25.78;100.00
21111;BME280;10713;51.912;4.494;2022-08-19T09:40:14;101375.16;;;25.82;100.00
21111;BME280;10713;51.912;4.494;2022-08-19T09:42:39;101371.69;;;25.80;100.00
21111;BME280;10713;51.912;4.494;2022-08-19T09:45:05;101373.13;;;25.75;100.00
21111;BME280;10713;51.912;4.494;2022-08-19T09:47:30;101366.59;;;25.77;100.00
21111;BME280;10713;51.912;4.494;2022-08-19T09:49:57;101372.09;;;25.38;100.00
21111;BME280;10713;51.912;4.494;2022-08-19T09:52:23;101380.34;;;25.27;100.00
21111;BME280;10713;51.912;4.494;2022-08-19T09:54:52;101384.75;;;25.19;100.00
21111;BME280;10713;51.912;4.494;2022-08-19T09:57:17;101376.94;;;25.15;100.00
21111;BME280;10713;51.912;4.494;2022-08-19T09:59:42;101378.75;;;25.15;100.00
21111;BME280;10713;51.912;4.494;2022-08-19T10:02:09;101386.31;;;25.21;100.00
21111;BME280;10713;51.912;4.494;2022-08-19T10:04:35;101389.00;;;25.31;100.00
21111;BME280;10713;51.912;4.494;2022-08-19T10:07:18;101381.75;;;25.41;100.00
21111;BME280;10713;51.912;4.494;2022-08-19T10:09:43;101380.31;;;25.47;100.00
21111;BME280;10713;51.912;4.494;2022-08-19T10:12:09;101378.03;;;25.52;100.00
21111;BME280;10713;51.912;4.494;2022-08-19T10:14:35;101382.28;;;25.54;100.00
21111;BME280;10713;51.912;4.494;2022-08-19T10:17:01;101382.41;;;25.62;100.00
21111;BME280;10713;51.912;4.494;2022-08-19T10:19:27;101383.22;;;26.02;100.00
21111;BME280;10713;51.912;4.494;2022-08-19T10:21:53;101371.91;;;26.89;100.00
21111;BME280;10713;51.912;4.494;2022-08-19T10:24:19;101377.06;;;27.98;100.00
21111;BME280;10713;51.912;4.494;2022-08-19T10:26:45;101368.38;;;28.63;100.00
21111;BME280;10713;51.912;4.494;2022-08-19T10:29:13;101354.91;;;29.37;100.00
21111;BME280;10713;51.912;4.494;2022-08-19T10:31:41;101355.06;;;29.52;100.00
21111;BME280;10713;51.912;4.494;2022-08-19T10:34:06;101349.13;;;29.32;100.00
21111;BME280;10713;51.912;4.494;2022-08-19T10:36:34;101352.69;;;29.65;100.00
21111;BME280;10713;51.912;4.494;2022-08-19T10:39:03;101356.22;;;29.82;100.00
21111;BME280;10713;51.912;4.494;2022-08-19T10:41:31;101355.69;;;29.95;100.00
21111;BME280;10713;51.912;4.494;2022-08-19T10:44:00;101355.00;;;29.93;100.00
21111;BME280;10713;51.912;4.494;2022-08-19T10:46:27;101350.47;;;29.77;100.00
21111;BME280;10713;51.912;4.494;2022-08-19T10:48:53;101351.34;;;29.36;100.00
21111;BME280;10713;51.912;4.494;2022-08-19T10:51:19;101346.94;;;29.11;100.00
21111;BME280;10713;51.912;4.494;2022-08-19T10:54:04;101353.09;;;28.62;100.00
21111;BME280;10713;51.912;4.494;2022-08-19T10:56:30;101355.97;;;28.18;100.00
21111;BME280;10713;51.912;4.494;2022-08-19T10:59:16;101365.16;;;27.91;100.00
21111;BME280;10713;51.912;4.494;2022-08-19T11:01:44;101358.88;;;27.65;100.00
21111;BME280;10713;51.912;4.494;2022-08-19T11:04:09;101361.34;;;27.58;100.00
21111;BME280;10713;51.912;4.494;2022-08-19T11:06:37;101364.38;;;27.55;100.00
21111;BME280;10713;51.912;4.494;2022-08-19T11:09:04;101355.34;;;27.72;100.00
21111;BME280;10713;51.912;4.494;2022-08-19T11:11:30;101361.66;;;27.99;100.00
21111;BME280;10713;51.912;4.494;2022-08-19T11:13:57;101353.09;;;28.20;100.00
21111;BME280;10713;51.912;4.494;2022-08-19T11:16:25;101358.06;;;28.24;100.00
21111;BME280;10713;51.912;4.494;2022-08-19T11:18:57;101348.75;;;28.35;100.00
21111;BME280;10713;51.912;4.494;2022-08-19T11:21:31;101352.47;;;28.34;100.00
21111;BME280;10713;51.912;4.494;2022-08-19T11:24:00;101351.94;;;28.22;100.00
21111;BME280;10713;51.912;4.494;2022-08-19T11:26:27;101365.78;;;28.11;100.00
21111;BME280;10713;51.912;4.494;2022-08-19T11:28:53;101365.50;;;27.88;100.00
21111;BME280;10713;51.912;4.494;2022-08-19T11:31:22;101366.97;;;27.56;100.00
21111;BME280;10713;51.912;4.494;2022-08-19T11:33:48;101366.63;;;27.33;100.00
21111;BME280;10713;51.912;4.494;2022-08-19T11:36:17;101363.13;;;27.23;100.00
21111;BME280;10713;51.912;4.494;2022-08-19T11:38:44;101362.91;;;27.16;100.00
21111;BME280;10713;51.912;4.494;2022-08-19T11:41:10;101360.88;;;27.36;100.00
21111;BME280;10713;51.912;4.494;2022-08-19T11:43:36;101356.31;;;27.37;100.00
21111;BME280;10713;51.912;4.494;2022-08-19T11:46:07;101363.06;;;27.33;100.00
21111;BME280;10713;51.912;4.494;2022-08-19T11:48:33;101353.94;;;27.16;100.00
21111;BME280;10713;51.912;4.494;2022-08-19T11:50:59;101356.06;;;26.94;100.00
21111;BME280;10713;51.912;4.494;2022-08-19T11:53:24;101369.81;;;26.65;100.00
21111;BME280;10713;51.912;4.494;2022-08-19T11:55:53;101361.06;;;26.54;100.00
21111;BME280;10713;51.912;4.494;2022-08-19T11:58:22;101364.66;;;26.44;100.00
21111;BME280;10713;51.912;4.494;2022-08-19T12:00:47;101368.72;;;26.31;100.00
21111;BME280;10713;51.912;4.494;2022-08-19T12:03:13;101377.56;;;26.23;100.00
21111;BME280;10713;51.912;4.494;2022-08-19T12:05:40;101374.41;;;26.83;100.00
21111;BME280;10713;51.912;4.494;2022-08-19T12:08:06;101379.06;;;26.35;100.00
21111;BME280;10713;51.912;4.494;2022-08-19T12:10:32;101373.66;;;26.35;100.00
21111;BME280;10713;51.912;4.494;2022-08-19T12:12:58;101368.81;;;26.39;100.00
21111;BME280;10713;51.912;4.494;2022-08-19T12:15:23;101371.72;;;26.55;100.00
21111;BME280;10713;51.912;4.494;2022-08-19T12:17:49;101372.75;;;26.72;100.00
21111;BME280;10713;51.912;4.494;2022-08-19T12:20:14;101374.63;;;26.71;100.00
21111;BME280;10713;51.912;4.494;2022-08-19T12:22:42;101381.91;;;26.71;100.00
21111;BME280;10713;51.912;4.494;2022-08-19T12:25:10;101378.78;;;26.66;100.00
21111;BME280;10713;51.912;4.494;2022-08-19T12:27:36;101382.81;;;26.62;100.00
21111;BME280;10713;51.912;4.494;2022-08-19T12:30:03;101380.88;;;26.44;100.00
21111;BME280;10713;51.912;4.494;2022-08-19T12:32:28;101374.16;;;26.48;100.00
21111;BME280;10713;51.912;4.494;2022-08-19T12:34:54;101375.97;;;26.58;100.00
21111;BME280;10713;51.912;4.494;2022-08-19T12:37:19;101374.13;;;26.58;100.00
21111;BME280;10713;51.912;4.494;2022-08-19T12:39:45;101377.41;;;26.62;100.00
21111;BME280;10713;51.912;4.494;2022-08-19T12:42:12;101376.25;;;26.64;100.00
21111;BME280;10713;51.912;4.494;2022-08-19T12:44:39;101374.31;;;26.74;100.00
21111;BME280;10713;51.912;4.494;2022-08-19T12:47:06;101372.41;;;26.85;100.00
21111;BME280;10713;51.912;4.494;2022-08-19T12:49:33;101375.19;;;27.11;100.00